sensor_id;sensor_type;location;lat;lon;timestamp;temperature;humidity
7360;DHT22;3720;48.274;7.796;2022-10-03T00:00:16;14.10;99.90
7360;DHT22;3720;48.274;7.796;2022-10-03T00:03:10;14.10;99.90
7360;DHT22;3720;48.274;7.796;2022-10-03T00:06:00;14.10;99.90
7360;DHT22;3720;48.274;7.796;2022-10-03T00:08:51;14.10;99.90
7360;DHT22;3720;48.274;7.796;2022-10-03T00:11:31;14.10;99.90
7360;DHT22;3720;48.274;7.796;2022-10-03T00:14:16;14.10;99.90
7360;DHT22;3720;48.274;7.796;2022-10-03T00:16:54;14.10;99.90
7360;DHT22;3720;48.274;7.796;2022-10-03T00:19:36;14.10;99.90
7360;DHT22;3720;48.274;7.796;2022-10-03T00:22:17;14.10;99.90
7360;DHT22;3720;48.274;7.796;2022-10-03T00:25:07;14.10;99.90
7360;DHT22;3720;48.274;7.796;2022-10-03T00:27:48;14.10;99.90
7360;DHT22;3720;48.274;7.796;2022-10-03T00:30:23;14.10;99.90
7360;DHT22;3720;48.274;7.796;2022-10-03T00:33:10;14.10;99.90
7360;DHT22;3720;48.274;7.796;2022-10-03T00:35:52;14.10;99.90
7360;DHT22;3720;48.274;7.796;2022-10-03T00:38:54;14.10;99.90
7360;DHT22;3720;48.274;7.796;2022-10-03T00:48:07;14.00;99.90
7360;DHT22;3720;48.274;7.796;2022-10-03T00:51:06;14.00;99.90
7360;DHT22;3720;48.274;7.796;2022-10-03T00:53:54;14.00;99.90
7360;DHT22;3720;48.274;7.796;2022-10-03T00:56:50;14.00;99.90
7360;DHT22;3720;48.274;7.796;2022-10-03T00:59:41;14.00;99.90
7360;DHT22;3720;48.274;7.796;2022-10-03T01:02:35;13.90;99.90
7360;DHT22;3720;48.274;7.796;2022-10-03T01:05:15;14.00;99.90
7360;DHT22;3720;48.274;7.796;2022-10-03T01:08:01;13.90;99.90
7360;DHT22;3720;48.274;7.796;2022-10-03T01:10:41;13.90;99.90
7360;DHT22;3720;48.274;7.796;2022-10-03T01:13:27;13.90;99.90
7360;DHT22;3720;48.274;7.796;2022-10-03T01:16:09;13.90;99.90
7360;DHT22;3720;48.274;7.796;2022-10-03T01:18:54;13.90;99.90
7360;DHT22;3720;48.274;7.796;2022-10-03T01:21:36;13.90;99.90
7360;DHT22;3720;48.274;7.796;2022-10-03T01:24:33;13.90;99.90
7360;DHT22;3720;48.274;7.796;2022-10-03T01:27:14;13.90;99.90
7360;DHT22;3720;48.274;7.796;2022-10-03T01:29:55;13.80;99.90
7360;DHT22;3720;48.274;7.796;2022-10-03T01:32:49;13.70;99.90
7360;DHT22;3720;48.274;7.796;2022-10-03T01:35:27;13.70;99.90
7360;DHT22;3720;48.274;7.796;2022-10-03T01:38:08;13.60;99.90
7360;DHT22;3720;48.274;7.796;2022-10-03T01:40:49;13.60;99.90
7360;DHT22;3720;48.274;7.796;2022-10-03T01:43:33;13.60;99.90
7360;DHT22;3720;48.274;7.796;2022-10-03T01:46:14;13.50;99.90
7360;DHT22;3720;48.274;7.796;2022-10-03T01:48:53;13.50;99.90
7360;DHT22;3720;48.274;7.796;2022-10-03T01:51:35;13.50;99.90
7360;DHT22;3720;48.274;7.796;2022-10-03T01:54:17;13.50;99.90
7360;DHT22;3720;48.274;7.796;2022-10-03T01:56:54;13.50;99.90
7360;DHT22;3720;48.274;7.796;2022-10-03T01:59:34;13.40;99.90
7360;DHT22;3720;48.274;7.796;2022-10-03T02:02:24;13.50;99.90
7360;DHT22;3720;48.274;7.796;2022-10-03T02:05:05;13.50;99.90
7360;DHT22;3720;48.274;7.796;2022-10-03T02:07:44;13.50;99.90
7360;DHT22;3720;48.274;7.796;2022-10-03T02:10:24;13.50;99.90
7360;DHT22;3720;48.274;7.796;2022-10-03T02:13:06;13.50;99.90
7360;DHT22;3720;48.274;7.796;2022-10-03T02:15:53;13.50;99.90
7360;DHT22;3720;48.274;7.796;2022-10-03T02:18:37;13.50;99.90
7360;DHT22;3720;48.274;7.796;2022-10-03T02:21:13;13.50;99.90
7360;DHT22;3720;48.274;7.796;2022-10-03T02:23:49;13.60;99.90
7360;DHT22;3720;48.274;7.796;2022-10-03T02:27:06;13.60;99.90
7360;DHT22;3720;48.274;7.796;2022-10-03T02:30:04;13.60;99.90
7360;DHT22;3720;48.274;7.796;2022-10-03T02:33:13;13.50;99.90
7360;DHT22;3720;48.274;7.796;2022-10-03T02:36:21;13.50;99.90
7360;DHT22;3720;48.274;7.796;2022-10-03T02:39:17;13.40;99.90
7360;DHT22;3720;48.274;7.796;2022-10-03T02:42:22;13.40;99.90
7360;DHT22;3720;48.274;7.796;2022-10-03T02:45:23;13.40;99.90
7360;DHT22;3720;48.274;7.796;2022-10-03T02:48:38;13.40;99.90
7360;DHT22;3720;48.274;7.796;2022-10-03T02:51:51;13.40;99.90
7360;DHT22;3720;48.274;7.796;2022-10-03T03:01:11;13.20;99.90
7360;DHT22;3720;48.274;7.796;2022-10-03T03:04:20;13.20;99.90
7360;DHT22;3720;48.274;7.796;2022-10-03T03:07:29;13.20;99.90
7360;DHT22;3720;48.274;7.796;2022-10-03T03:10:34;13.20;99.90
7360;DHT22;3720;48.274;7.796;2022-10-03T03:13:25;13.10;99.90
7360;DHT22;3720;48.274;7.796;2022-10-03T03:16:36;13.10;99.90
7360;DHT22;3720;48.274;7.796;2022-10-03T03:19:21;13.10;99.90
7360;DHT22;3720;48.274;7.796;2022-10-03T03:22:00;13.10;99.90
7360;DHT22;3720;48.274;7.796;2022-10-03T03:24:50;13.10;99.90
7360;DHT22;3720;48.274;7.796;2022-10-03T03:27:38;13.10;99.90
7360;DHT22;3720;48.274;7.796;2022-10-03T03:30:15;13.10;99.90
7360;DHT22;3720;48.274;7.796;2022-10-03T03:32:59;13.10;99.90
7360;DHT22;3720;48.274;7.796;2022-10-03T03:35:45;13.10;99.90
7360;DHT22;3720;48.274;7.796;2022-10-03T03:38:28;13.20;99.90
7360;DHT22;3720;48.274;7.796;2022-10-03T03:41:24;13.10;99.90
7360;DHT22;3720;48.274;7.796;2022-10-03T03:44:23;13.10;99.90
7360;DHT22;3720;48.274;7.796;2022-10-03T03:47:11;13.10;99.90
7360;DHT22;3720;48.274;7.796;2022-10-03T03:50:01;13.10;99.90
7360;DHT22;3720;48.274;7.796;2022-10-03T03:52:49;13.00;99.90
7360;DHT22;3720;48.274;7.796;2022-10-03T03:55:40;13.00;99.90
7360;DHT22;3720;48.274;7.796;2022-10-03T03:58:32;13.00;99.90
7360;DHT22;3720;48.274;7.796;2022-10-03T04:01:17;12.90;99.90
7360;DHT22;3720;48.274;7.796;2022-10-03T04:04:03;12.90;99.90
7360;DHT22;3720;48.274;7.796;2022-10-03T04:06:46;12.90;99.90
7360;DHT22;3720;48.274;7.796;2022-10-03T04:10:09;12.90;99.90
7360;DHT22;3720;48.274;7.796;2022-10-03T04:13:01;12.80;99.90
7360;DHT22;3720;48.274;7.796;2022-10-03T04:18:50;12.80;99.90
7360;DHT22;3720;48.274;7.796;2022-10-03T04:24:45;12.80;99.90
7360;DHT22;3720;48.274;7.796;2022-10-03T04:30:39;12.80;99.90
7360;DHT22;3720;48.274;7.796;2022-10-03T04:33:25;12.80;99.90
7360;DHT22;3720;48.274;7.796;2022-10-03T04:36:33;12.80;99.90
7360;DHT22;3720;48.274;7.796;2022-10-03T04:39:15;12.70;99.90
7360;DHT22;3720;48.274;7.796;2022-10-03T04:41:52;12.70;99.90
7360;DHT22;3720;48.274;7.796;2022-10-03T04:44:34;12.70;99.90
7360;DHT22;3720;48.274;7.796;2022-10-03T04:47:16;12.70;99.90
7360;DHT22;3720;48.274;7.796;2022-10-03T04:49:57;12.70;99.90
7360;DHT22;3720;48.274;7.796;2022-10-03T04:52:35;12.70;99.90
7360;DHT22;3720;48.274;7.796;2022-10-03T04:55:20;12.70;99.90
7360;DHT22;3720;48.274;7.796;2022-10-03T04:58:00;12.60;99.90
7360;DHT22;3720;48.274;7.796;2022-10-03T05:00:47;12.70;99.90
7360;DHT22;3720;48.274;7.796;2022-10-03T05:03:30;12.70;99.90
7360;DHT22;3720;48.274;7.796;2022-10-03T05:06:21;12.70;99.90
7360;DHT22;3720;48.274;7.796;2022-10-03T05:09:00;12.70;99.90
7360;DHT22;3720;48.274;7.796;2022-10-03T05:11:52;12.60;99.90
7360;DHT22;3720;48.274;7.796;2022-10-03T05:14:44;12.60;99.90
7360;DHT22;3720;48.274;7.796;2022-10-03T05:17:23;12.60;99.90
7360;DHT22;3720;48.274;7.796;2022-10-03T05:20:23;12.60;99.90
7360;DHT22;3720;48.274;7.796;2022-10-03T05:23:09;12.60;99.90
7360;DHT22;3720;48.274;7.796;2022-10-03T05:25:48;12.60;99.90
7360;DHT22;3720;48.274;7.796;2022-10-03T05:28:35;12.60;99.90
7360;DHT22;3720;48.274;7.796;2022-10-03T05:31:32;12.60;99.90
7360;DHT22;3720;48.274;7.796;2022-10-03T05:34:15;12.60;99.90
7360;DHT22;3720;48.274;7.796;2022-10-03T05:37:16;12.60;99.90
7360;DHT22;3720;48.274;7.796;2022-10-03T05:39:57;12.60;99.90
7360;DHT22;3720;48.274;7.796;2022-10-03T05:42:36;12.50;99.90
7360;DHT22;3720;48.274;7.796;2022-10-03T05:45:20;12.50;99.90
7360;DHT22;3720;48.274;7.796;2022-10-03T05:48:11;12.50;99.90
7360;DHT22;3720;48.274;7.796;2022-10-03T05:51:21;12.50;99.90
7360;DHT22;3720;48.274;7.796;2022-10-03T05:54:18;12.50;99.90
7360;DHT22;3720;48.274;7.796;2022-10-03T06:00:14;12.50;99.90
7360;DHT22;3720;48.274;7.796;2022-10-03T06:02:53;12.60;99.90
7360;DHT22;3720;48.274;7.796;2022-10-03T06:05:32;12.60;99.90
7360;DHT22;3720;48.274;7.796;2022-10-03T06:08:39;12.60;99.90
7360;DHT22;3720;48.274;7.796;2022-10-03T06:14:28;12.60;99.90
7360;DHT22;3720;48.274;7.796;2022-10-03T06:17:30;12.70;99.90
7360;DHT22;3720;48.274;7.796;2022-10-03T06:20:27;12.70;99.90
7360;DHT22;3720;48.274;7.796;2022-10-03T06:23:34;12.70;99.90
7360;DHT22;3720;48.274;7.796;2022-10-03T06:26:32;12.70;99.90
7360;DHT22;3720;48.274;7.796;2022-10-03T06:36:23;12.70;99.90
7360;DHT22;3720;48.274;7.796;2022-10-03T06:42:30;12.70;99.90
7360;DHT22;3720;48.274;7.796;2022-10-03T06:48:48;12.70;99.90
7360;DHT22;3720;48.274;7.796;2022-10-03T06:51:45;12.80;99.90
7360;DHT22;3720;48.274;7.796;2022-10-03T06:54:52;12.90;99.90
7360;DHT22;3720;48.274;7.796;2022-10-03T07:00:57;13.10;99.90
7360;DHT22;3720;48.274;7.796;2022-10-03T07:04:01;13.20;99.90
7360;DHT22;3720;48.274;7.796;2022-10-03T07:07:01;13.30;99.90
7360;DHT22;3720;48.274;7.796;2022-10-03T07:10:25;13.40;99.90
7360;DHT22;3720;48.274;7.796;2022-10-03T07:19:38;13.50;99.90
7360;DHT22;3720;48.274;7.796;2022-10-03T07:22:35;13.60;99.90
7360;DHT22;3720;48.274;7.796;2022-10-03T07:28:53;13.60;99.90
7360;DHT22;3720;48.274;7.796;2022-10-03T07:31:41;13.60;99.90
7360;DHT22;3720;48.274;7.796;2022-10-03T07:34:50;13.70;99.90
7360;DHT22;3720;48.274;7.796;2022-10-03T07:37:48;13.80;99.90
7360;DHT22;3720;48.274;7.796;2022-10-03T07:41:15;13.90;99.90
7360;DHT22;3720;48.274;7.796;2022-10-03T07:44:13;14.00;99.90
7360;DHT22;3720;48.274;7.796;2022-10-03T07:46:53;14.10;99.90
7360;DHT22;3720;48.274;7.796;2022-10-03T07:49:50;14.20;99.90
7360;DHT22;3720;48.274;7.796;2022-10-03T07:52:44;14.30;99.90
7360;DHT22;3720;48.274;7.796;2022-10-03T07:55:41;14.30;99.90
7360;DHT22;3720;48.274;7.796;2022-10-03T08:01:39;14.20;99.90
7360;DHT22;3720;48.274;7.796;2022-10-03T08:04:46;14.20;99.90
7360;DHT22;3720;48.274;7.796;2022-10-03T08:07:35;14.20;99.90
7360;DHT22;3720;48.274;7.796;2022-10-03T08:10:30;14.30;99.90
7360;DHT22;3720;48.274;7.796;2022-10-03T08:13:17;14.50;99.90
7360;DHT22;3720;48.274;7.796;2022-10-03T08:16:04;14.60;99.90
7360;DHT22;3720;48.274;7.796;2022-10-03T08:21:59;14.60;99.90
7360;DHT22;3720;48.274;7.796;2022-10-03T08:24:58;14.60;99.90
7360;DHT22;3720;48.274;7.796;2022-10-03T08:27:50;14.60;99.90
7360;DHT22;3720;48.274;7.796;2022-10-03T08:30:29;14.60;99.90
7360;DHT22;3720;48.274;7.796;2022-10-03T08:33:35;14.70;99.90
7360;DHT22;3720;48.274;7.796;2022-10-03T08:36:33;14.90;99.90
7360;DHT22;3720;48.274;7.796;2022-10-03T08:39:15;15.00;99.90
7360;DHT22;3720;48.274;7.796;2022-10-03T08:45:34;15.10;99.90
7360;DHT22;3720;48.274;7.796;2022-10-03T08:51:54;15.20;99.90
7360;DHT22;3720;48.274;7.796;2022-10-03T09:00:49;15.60;99.90
7360;DHT22;3720;48.274;7.796;2022-10-03T09:04:01;15.80;99.90
7360;DHT22;3720;48.274;7.796;2022-10-03T09:06:57;16.00;99.90
7360;DHT22;3720;48.274;7.796;2022-10-03T09:19:25;16.70;99.90
7360;DHT22;3720;48.274;7.796;2022-10-03T09:22:29;16.70;99.90
7360;DHT22;3720;48.274;7.796;2022-10-03T09:25:22;16.70;99.90
7360;DHT22;3720;48.274;7.796;2022-10-03T09:28:27;16.70;99.90
7360;DHT22;3720;48.274;7.796;2022-10-03T09:31:26;16.60;99.90
7360;DHT22;3720;48.274;7.796;2022-10-03T09:34:20;16.70;99.90
7360;DHT22;3720;48.274;7.796;2022-10-03T09:37:29;16.80;99.90
7360;DHT22;3720;48.274;7.796;2022-10-03T09:40:49;16.90;99.90
7360;DHT22;3720;48.274;7.796;2022-10-03T09:43:55;16.80;99.90
7360;DHT22;3720;48.274;7.796;2022-10-03T09:46:56;16.80;99.90
7360;DHT22;3720;48.274;7.796;2022-10-03T09:53:17;17.30;99.90
7360;DHT22;3720;48.274;7.796;2022-10-03T09:56:15;17.60;99.90
7360;DHT22;3720;48.274;7.796;2022-10-03T09:59:10;17.70;99.90
7360;DHT22;3720;48.274;7.796;2022-10-03T10:01:52;17.70;99.90
7360;DHT22;3720;48.274;7.796;2022-10-03T10:04:43;17.80;99.90
7360;DHT22;3720;48.274;7.796;2022-10-03T10:07:45;17.70;99.90
7360;DHT22;3720;48.274;7.796;2022-10-03T10:14:08;17.50;99.90
7360;DHT22;3720;48.274;7.796;2022-10-03T10:20:08;17.80;99.90
7360;DHT22;3720;48.274;7.796;2022-10-03T10:32:51;19.20;99.90
7360;DHT22;3720;48.274;7.796;2022-10-03T10:38:43;19.30;99.90
7360;DHT22;3720;48.274;7.796;2022-10-03T10:51:35;19.30;99.90
7360;DHT22;3720;48.274;7.796;2022-10-03T10:54:38;19.60;99.90
7360;DHT22;3720;48.274;7.796;2022-10-03T10:57:36;20.10;99.90
7360;DHT22;3720;48.274;7.796;2022-10-03T11:00:22;20.40;99.90
7360;DHT22;3720;48.274;7.796;2022-10-03T11:07:02;20.50;99.90
7360;DHT22;3720;48.274;7.796;2022-10-03T11:10:14;20.40;99.90
7360;DHT22;3720;48.274;7.796;2022-10-03T11:29:51;21.60;99.90
7360;DHT22;3720;48.274;7.796;2022-10-03T11:36:14;22.30;99.90
7360;DHT22;3720;48.274;7.796;2022-10-03T11:38:58;22.70;99.90
7360;DHT22;3720;48.274;7.796;2022-10-03T11:41:46;23.00;99.90
7360;DHT22;3720;48.274;7.796;2022-10-03T11:44:24;23.30;99.90
7360;DHT22;3720;48.274;7.796;2022-10-03T11:47:22;23.50;99.90
7360;DHT22;3720;48.274;7.796;2022-10-03T11:53:26;23.30;99.90
7360;DHT22;3720;48.274;7.796;2022-10-03T11:56:18;23.50;99.90
7360;DHT22;3720;48.274;7.796;2022-10-03T11:59:09;23.80;99.90
7360;DHT22;3720;48.274;7.796;2022-10-03T12:01:58;24.20;99.90
7360;DHT22;3720;48.274;7.796;2022-10-03T12:04:44;24.40;99.90
7360;DHT22;3720;48.274;7.796;2022-10-03T12:07:27;24.20;99.90
7360;DHT22;3720;48.274;7.796;2022-10-03T12:10:31;24.10;99.90
7360;DHT22;3720;48.274;7.796;2022-10-03T12:13:08;24.30;99.90
7360;DHT22;3720;48.274;7.796;2022-10-03T12:15:49;24.30;99.90
7360;DHT22;3720;48.274;7.796;2022-10-03T12:18:28;24.00;99.90
7360;DHT22;3720;48.274;7.796;2022-10-03T12:21:10;24.10;99.90
7360;DHT22;3720;48.274;7.796;2022-10-03T12:24:04;24.30;99.90
7360;DHT22;3720;48.274;7.796;2022-10-03T12:26:46;24.40;99.90
7360;DHT22;3720;48.274;7.796;2022-10-03T12:29:24;24.20;99.90
7360;DHT22;3720;48.274;7.796;2022-10-03T12:32:14;24.00;99.90
7360;DHT22;3720;48.274;7.796;2022-10-03T12:34:52;23.70;99.90
7360;DHT22;3720;48.274;7.796;2022-10-03T12:38:01;23.60;99.90
7360;DHT22;3720;48.274;7.796;2022-10-03T12:40:38;23.70;99.90
7360;DHT22;3720;48.274;7.796;2022-10-03T12:43:17;23.80;99.90
7360;DHT22;3720;48.274;7.796;2022-10-03T12:45:58;24.00;99.90
7360;DHT22;3720;48.274;7.796;2022-10-03T12:48:44;24.20;99.90
7360;DHT22;3720;48.274;7.796;2022-10-03T12:51:29;24.10;99.90
7360;DHT22;3720;48.274;7.796;2022-10-03T12:54:12;23.90;99.90
7360;DHT22;3720;48.274;7.796;2022-10-03T12:56:53;24.00;99.90
7360;DHT22;3720;48.274;7.796;2022-10-03T12:59:34;24.30;99.90
7360;DHT22;3720;48.274;7.796;2022-10-03T13:02:23;24.40;99.90
7360;DHT22;3720;48.274;7.796;2022-10-03T13:05:18;24.70;99.90
7360;DHT22;3720;48.274;7.796;2022-10-03T13:07:55;24.90;99.90
7360;DHT22;3720;48.274;7.796;2022-10-03T13:10:37;24.70;99.90
7360;DHT22;3720;48.274;7.796;2022-10-03T13:13:22;24.40;99.90
7360;DHT22;3720;48.274;7.796;2022-10-03T13:16:22;24.30;99.90
7360;DHT22;3720;48.274;7.796;2022-10-03T13:18:58;24.30;99.90
7360;DHT22;3720;48.274;7.796;2022-10-03T13:21:49;24.40;99.90
7360;DHT22;3720;48.274;7.796;2022-10-03T13:24:30;24.60;99.90
7360;DHT22;3720;48.274;7.796;2022-10-03T13:27:13;24.50;99.90
7360;DHT22;3720;48.274;7.796;2022-10-03T13:29:49;24.70;99.90
7360;DHT22;3720;48.274;7.796;2022-10-03T13:32:30;24.90;99.90
7360;DHT22;3720;48.274;7.796;2022-10-03T13:35:20;24.90;99.90
7360;DHT22;3720;48.274;7.796;2022-10-03T13:38:18;25.10;99.90
7360;DHT22;3720;48.274;7.796;2022-10-03T13:40:57;25.20;99.90
7360;DHT22;3720;48.274;7.796;2022-10-03T13:43:34;25.20;99.90
7360;DHT22;3720;48.274;7.796;2022-10-03T13:46:12;25.20;99.90
7360;DHT22;3720;48.274;7.796;2022-10-03T13:48:51;25.20;99.90
7360;DHT22;3720;48.274;7.796;2022-10-03T13:51:33;25.30;99.90
7360;DHT22;3720;48.274;7.796;2022-10-03T13:54:15;25.30;99.90
7360;DHT22;3720;48.274;7.796;2022-10-03T13:56:53;25.40;99.90
7360;DHT22;3720;48.274;7.796;2022-10-03T13:59:51;25.30;99.90
7360;DHT22;3720;48.274;7.796;2022-10-03T14:02:49;25.30;99.90
7360;DHT22;3720;48.274;7.796;2022-10-03T14:05:43;25.10;99.90
7360;DHT22;3720;48.274;7.796;2022-10-03T14:08:37;25.00;99.90
7360;DHT22;3720;48.274;7.796;2022-10-03T14:11:21;25.10;99.90
7360;DHT22;3720;48.274;7.796;2022-10-03T14:14:25;25.20;99.90
7360;DHT22;3720;48.274;7.796;2022-10-03T14:17:07;25.20;99.90
7360;DHT22;3720;48.274;7.796;2022-10-03T14:19:57;25.20;99.90
7360;DHT22;3720;48.274;7.796;2022-10-03T14:22:42;25.10;99.90
7360;DHT22;3720;48.274;7.796;2022-10-03T14:25:23;25.00;99.90
7360;DHT22;3720;48.274;7.796;2022-10-03T14:28:01;25.00;99.90
7360;DHT22;3720;48.274;7.796;2022-10-03T14:30:56;24.90;99.90
7360;DHT22;3720;48.274;7.796;2022-10-03T14:33:37;24.80;99.90
7360;DHT22;3720;48.274;7.796;2022-10-03T14:36:23;24.70;99.90
7360;DHT22;3720;48.274;7.796;2022-10-03T14:39:12;24.80;99.90
7360;DHT22;3720;48.274;7.796;2022-10-03T14:44:56;24.70;99.90
7360;DHT22;3720;48.274;7.796;2022-10-03T14:47:33;24.40;99.90
7360;DHT22;3720;48.274;7.796;2022-10-03T14:50:14;24.30;99.90
7360;DHT22;3720;48.274;7.796;2022-10-03T14:52:50;24.10;99.90
7360;DHT22;3720;48.274;7.796;2022-10-03T14:55:37;23.90;99.90
7360;DHT22;3720;48.274;7.796;2022-10-03T14:58:16;24.00;99.90
7360;DHT22;3720;48.274;7.796;2022-10-03T15:00:53;24.00;99.90
7360;DHT22;3720;48.274;7.796;2022-10-03T15:03:33;24.10;99.90
7360;DHT22;3720;48.274;7.796;2022-10-03T15:06:20;24.20;99.90
7360;DHT22;3720;48.274;7.796;2022-10-03T15:08:54;24.10;99.90
7360;DHT22;3720;48.274;7.796;2022-10-03T15:11:31;24.20;99.90
7360;DHT22;3720;48.274;7.796;2022-10-03T15:14:08;24.10;99.90
7360;DHT22;3720;48.274;7.796;2022-10-03T15:16:44;24.00;99.90
7360;DHT22;3720;48.274;7.796;2022-10-03T15:19:20;24.00;99.90
7360;DHT22;3720;48.274;7.796;2022-10-03T15:22:05;23.90;99.90
7360;DHT22;3720;48.274;7.796;2022-10-03T15:24:42;23.90;99.90
7360;DHT22;3720;48.274;7.796;2022-10-03T15:27:18;23.90;99.90
7360;DHT22;3720;48.274;7.796;2022-10-03T15:29:53;23.90;99.90
7360;DHT22;3720;48.274;7.796;2022-10-03T15:32:31;23.90;99.90
7360;DHT22;3720;48.274;7.796;2022-10-03T15:35:06;23.80;99.90
7360;DHT22;3720;48.274;7.796;2022-10-03T15:37:40;23.60;99.90
7360;DHT22;3720;48.274;7.796;2022-10-03T15:40:20;23.50;99.90
7360;DHT22;3720;48.274;7.796;2022-10-03T15:43:02;23.30;99.90
7360;DHT22;3720;48.274;7.796;2022-10-03T15:45:37;23.20;99.90
7360;DHT22;3720;48.274;7.796;2022-10-03T15:48:15;23.20;99.90
7360;DHT22;3720;48.274;7.796;2022-10-03T15:50:51;23.10;99.90
7360;DHT22;3720;48.274;7.796;2022-10-03T15:53:24;22.90;99.90
7360;DHT22;3720;48.274;7.796;2022-10-03T15:56:08;22.80;99.90
7360;DHT22;3720;48.274;7.796;2022-10-03T15:58:45;22.70;99.90
7360;DHT22;3720;48.274;7.796;2022-10-03T16:01:20;22.60;99.90
7360;DHT22;3720;48.274;7.796;2022-10-03T16:03:58;22.40;99.90
7360;DHT22;3720;48.274;7.796;2022-10-03T16:06:40;22.30;99.90
7360;DHT22;3720;48.274;7.796;2022-10-03T16:09:22;22.20;99.90
7360;DHT22;3720;48.274;7.796;2022-10-03T16:14:58;21.90;99.90
7360;DHT22;3720;48.274;7.796;2022-10-03T16:17:39;21.70;99.90
7360;DHT22;3720;48.274;7.796;2022-10-03T16:20:19;21.60;99.90
7360;DHT22;3720;48.274;7.796;2022-10-03T16:22:54;21.50;99.90
7360;DHT22;3720;48.274;7.796;2022-10-03T16:25:30;21.40;99.90
7360;DHT22;3720;48.274;7.796;2022-10-03T16:28:11;21.20;99.90
7360;DHT22;3720;48.274;7.796;2022-10-03T16:30:48;21.00;99.90
7360;DHT22;3720;48.274;7.796;2022-10-03T16:33:25;20.80;99.90
7360;DHT22;3720;48.274;7.796;2022-10-03T16:36:00;20.60;99.90
7360;DHT22;3720;48.274;7.796;2022-10-03T16:38:35;20.40;99.90
7360;DHT22;3720;48.274;7.796;2022-10-03T16:41:14;20.20;99.90
7360;DHT22;3720;48.274;7.796;2022-10-03T16:43:54;19.90;99.90
7360;DHT22;3720;48.274;7.796;2022-10-03T16:46:30;19.70;99.90
7360;DHT22;3720;48.274;7.796;2022-10-03T16:49:10;19.50;99.90
7360;DHT22;3720;48.274;7.796;2022-10-03T16:52:10;19.40;99.90
7360;DHT22;3720;48.274;7.796;2022-10-03T16:54:43;19.10;99.90
7360;DHT22;3720;48.274;7.796;2022-10-03T16:57:18;18.90;99.90
7360;DHT22;3720;48.274;7.796;2022-10-03T16:59:52;18.70;99.90
7360;DHT22;3720;48.274;7.796;2022-10-03T17:02:26;18.60;99.90
7360;DHT22;3720;48.274;7.796;2022-10-03T17:05:02;18.50;99.90
7360;DHT22;3720;48.274;7.796;2022-10-03T17:07:37;18.30;99.90
7360;DHT22;3720;48.274;7.796;2022-10-03T17:10:32;18.10;99.90
7360;DHT22;3720;48.274;7.796;2022-10-03T17:13:11;17.90;99.90
7360;DHT22;3720;48.274;7.796;2022-10-03T17:15:48;17.80;99.90
7360;DHT22;3720;48.274;7.796;2022-10-03T17:18:25;17.60;99.90
7360;DHT22;3720;48.274;7.796;2022-10-03T17:21:03;17.50;99.90
7360;DHT22;3720;48.274;7.796;2022-10-03T17:23:44;17.30;99.90
7360;DHT22;3720;48.274;7.796;2022-10-03T17:26:23;17.10;99.90
7360;DHT22;3720;48.274;7.796;2022-10-03T17:29:05;17.10;99.90
7360;DHT22;3720;48.274;7.796;2022-10-03T17:31:43;16.90;99.90
7360;DHT22;3720;48.274;7.796;2022-10-03T17:34:18;16.80;99.90
7360;DHT22;3720;48.274;7.796;2022-10-03T17:37:15;16.70;99.90
7360;DHT22;3720;48.274;7.796;2022-10-03T17:39:55;16.70;99.90
7360;DHT22;3720;48.274;7.796;2022-10-03T17:42:37;16.60;99.90
7360;DHT22;3720;48.274;7.796;2022-10-03T17:45:27;16.60;99.90
7360;DHT22;3720;48.274;7.796;2022-10-03T17:48:11;16.40;99.90
7360;DHT22;3720;48.274;7.796;2022-10-03T17:50:53;16.40;99.90
7360;DHT22;3720;48.274;7.796;2022-10-03T17:53:28;16.30;99.90
7360;DHT22;3720;48.274;7.796;2022-10-03T17:56:07;16.10;99.90
7360;DHT22;3720;48.274;7.796;2022-10-03T17:58:43;16.00;99.90
7360;DHT22;3720;48.274;7.796;2022-10-03T18:01:21;16.00;99.90
7360;DHT22;3720;48.274;7.796;2022-10-03T18:03:56;15.90;99.90
7360;DHT22;3720;48.274;7.796;2022-10-03T18:06:43;15.80;99.90
7360;DHT22;3720;48.274;7.796;2022-10-03T18:09:26;15.70;99.90
7360;DHT22;3720;48.274;7.796;2022-10-03T18:12:19;15.50;99.90
7360;DHT22;3720;48.274;7.796;2022-10-03T18:15:19;15.50;99.90
7360;DHT22;3720;48.274;7.796;2022-10-03T18:18:01;15.30;99.90
7360;DHT22;3720;48.274;7.796;2022-10-03T18:20:45;15.30;99.90
7360;DHT22;3720;48.274;7.796;2022-10-03T18:23:21;15.20;99.90
7360;DHT22;3720;48.274;7.796;2022-10-03T18:26:01;15.10;99.90
7360;DHT22;3720;48.274;7.796;2022-10-03T18:28:44;15.10;99.90
7360;DHT22;3720;48.274;7.796;2022-10-03T18:31:20;15.00;99.90
7360;DHT22;3720;48.274;7.796;2022-10-03T18:33:54;14.80;99.90
7360;DHT22;3720;48.274;7.796;2022-10-03T18:36:30;14.80;99.90
7360;DHT22;3720;48.274;7.796;2022-10-03T18:39:07;14.70;99.90
7360;DHT22;3720;48.274;7.796;2022-10-03T18:41:43;14.60;99.90
7360;DHT22;3720;48.274;7.796;2022-10-03T18:44:18;14.60;99.90
7360;DHT22;3720;48.274;7.796;2022-10-03T18:46:56;14.60;99.90
7360;DHT22;3720;48.274;7.796;2022-10-03T18:49:30;14.50;99.90
7360;DHT22;3720;48.274;7.796;2022-10-03T18:52:07;14.50;99.90
7360;DHT22;3720;48.274;7.796;2022-10-03T18:54:55;14.40;99.90
7360;DHT22;3720;48.274;7.796;2022-10-03T18:57:34;14.30;99.90
7360;DHT22;3720;48.274;7.796;2022-10-03T19:00:16;14.20;99.90
7360;DHT22;3720;48.274;7.796;2022-10-03T19:02:52;14.10;99.90
7360;DHT22;3720;48.274;7.796;2022-10-03T19:05:28;14.10;99.90
7360;DHT22;3720;48.274;7.796;2022-10-03T19:08:08;13.90;99.90
7360;DHT22;3720;48.274;7.796;2022-10-03T19:10:44;13.80;99.90
7360;DHT22;3720;48.274;7.796;2022-10-03T19:13:25;13.80;99.90
7360;DHT22;3720;48.274;7.796;2022-10-03T19:16:12;13.70;99.90
7360;DHT22;3720;48.274;7.796;2022-10-03T19:18:55;13.50;99.90
7360;DHT22;3720;48.274;7.796;2022-10-03T19:21:34;13.40;99.90
7360;DHT22;3720;48.274;7.796;2022-10-03T19:24:11;13.30;99.90
7360;DHT22;3720;48.274;7.796;2022-10-03T19:26:47;13.20;99.90
7360;DHT22;3720;48.274;7.796;2022-10-03T19:29:23;13.10;99.90
7360;DHT22;3720;48.274;7.796;2022-10-03T19:32:02;13.00;99.90
7360;DHT22;3720;48.274;7.796;2022-10-03T19:34:37;13.00;99.90
7360;DHT22;3720;48.274;7.796;2022-10-03T19:37:12;13.00;99.90
7360;DHT22;3720;48.274;7.796;2022-10-03T19:39:47;12.90;99.90
7360;DHT22;3720;48.274;7.796;2022-10-03T19:42:26;12.90;99.90
7360;DHT22;3720;48.274;7.796;2022-10-03T19:45:01;12.80;99.90
7360;DHT22;3720;48.274;7.796;2022-10-03T19:47:36;12.80;99.90
7360;DHT22;3720;48.274;7.796;2022-10-03T19:50:12;12.80;99.90
7360;DHT22;3720;48.274;7.796;2022-10-03T19:52:50;12.80;99.90
7360;DHT22;3720;48.274;7.796;2022-10-03T19:55:28;12.80;99.90
7360;DHT22;3720;48.274;7.796;2022-10-03T19:58:02;12.80;99.90
7360;DHT22;3720;48.274;7.796;2022-10-03T20:00:37;12.80;99.90
7360;DHT22;3720;48.274;7.796;2022-10-03T20:03:16;12.70;99.90
7360;DHT22;3720;48.274;7.796;2022-10-03T20:05:56;12.70;99.90
7360;DHT22;3720;48.274;7.796;2022-10-03T20:08:34;12.50;99.90
7360;DHT22;3720;48.274;7.796;2022-10-03T20:11:26;12.40;99.90
7360;DHT22;3720;48.274;7.796;2022-10-03T20:14:02;12.30;99.90
7360;DHT22;3720;48.274;7.796;2022-10-03T20:16:41;12.30;99.90
7360;DHT22;3720;48.274;7.796;2022-10-03T20:19:21;12.20;99.90
7360;DHT22;3720;48.274;7.796;2022-10-03T20:21:55;12.20;99.90
7360;DHT22;3720;48.274;7.796;2022-10-03T20:24:31;12.20;99.90
7360;DHT22;3720;48.274;7.796;2022-10-03T20:27:17;12.20;99.90
7360;DHT22;3720;48.274;7.796;2022-10-03T20:30:00;12.20;99.90
7360;DHT22;3720;48.274;7.796;2022-10-03T20:32:37;12.20;99.90
7360;DHT22;3720;48.274;7.796;2022-10-03T20:35:20;12.20;99.90